sensor_id;sensor_type;location;lat;lon;timestamp;pressure;altitude;pressure_sealevel;temperature;humidity
59194;BME280;44967;48.598;15.650;2022-12-07T00:01:29;97956.06;;;7.62;56.16
59194;BME280;44967;48.598;15.650;2022-12-07T00:03:57;97964.50;;;7.73;55.66
59194;BME280;44967;48.598;15.650;2022-12-07T00:06:26;97949.78;;;7.74;55.06
59194;BME280;44967;48.598;15.650;2022-12-07T00:08:51;97956.66;;;7.84;56.52
59194;BME280;44967;48.598;15.650;2022-12-07T00:11:23;97956.28;;;7.85;55.56
59194;BME280;44967;48.598;15.650;2022-12-07T00:13:57;97961.81;;;7.89;56.25
59194;BME280;44967;48.598;15.650;2022-12-07T00:16:26;97952.94;;;7.76;55.77
59194;BME280;44967;48.598;15.650;2022-12-07T00:18:52;97951.53;;;7.66;56.54
59194;BME280;44967;48.598;15.650;2022-12-07T00:21:21;97952.94;;;7.76;55.96
59194;BME280;44967;48.598;15.650;2022-12-07T00:23:48;97943.44;;;7.69;57.26
59194;BME280;44967;48.598;15.650;2022-12-07T00:26:21;97948.75;;;7.50;57.16
59194;BME280;44967;48.598;15.650;2022-12-07T00:28:51;97952.69;;;7.52;56.42
59194;BME280;44967;48.598;15.650;2022-12-07T00:31:20;97946.63;;;7.72;56.82
59194;BME280;44967;48.598;15.650;2022-12-07T00:33:47;97951.84;;;7.64;57.35
59194;BME280;44967;48.598;15.650;2022-12-07T00:36:15;97957.03;;;7.69;56.88
59194;BME280;44967;48.598;15.650;2022-12-07T00:38:41;97958.88;;;7.65;56.90
59194;BME280;44967;48.598;15.650;2022-12-07T00:41:13;97955.16;;;7.58;57.46
59194;BME280;44967;48.598;15.650;2022-12-07T00:43:40;97950.81;;;7.69;56.32
59194;BME280;44967;48.598;15.650;2022-12-07T00:46:06;97953.47;;;7.53;56.84
59194;BME280;44967;48.598;15.650;2022-12-07T00:48:32;97955.03;;;7.66;56.93
59194;BME280;44967;48.598;15.650;2022-12-07T00:50:58;97947.19;;;7.65;56.88
59194;BME280;44967;48.598;15.650;2022-12-07T00:53:25;97949.06;;;7.77;56.28
59194;BME280;44967;48.598;15.650;2022-12-07T00:55:51;97954.03;;;7.59;57.76
59194;BME280;44967;48.598;15.650;2022-12-07T00:58:18;97950.09;;;7.56;55.84
59194;BME280;44967;48.598;15.650;2022-12-07T01:00:44;97943.72;;;7.64;57.06
59194;BME280;44967;48.598;15.650;2022-12-07T01:03:12;97948.59;;;7.87;56.32
59194;BME280;44967;48.598;15.650;2022-12-07T01:05:39;97941.38;;;7.79;56.23
59194;BME280;44967;48.598;15.650;2022-12-07T01:08:05;97944.34;;;7.74;55.78
59194;BME280;44967;48.598;15.650;2022-12-07T01:10:32;97951.34;;;7.75;55.69
59194;BME280;44967;48.598;15.650;2022-12-07T01:12:58;97942.66;;;7.69;56.51
59194;BME280;44967;48.598;15.650;2022-12-07T01:15:24;97946.44;;;7.80;56.57
59194;BME280;44967;48.598;15.650;2022-12-07T01:17:50;97943.09;;;7.71;56.55
59194;BME280;44967;48.598;15.650;2022-12-07T01:20:17;97953.75;;;7.76;56.03
59194;BME280;44967;48.598;15.650;2022-12-07T01:22:43;97955.50;;;7.85;55.10
59194;BME280;44967;48.598;15.650;2022-12-07T01:25:10;97964.50;;;8.01;56.35
59194;BME280;44967;48.598;15.650;2022-12-07T01:27:36;97957.47;;;8.00;56.03
59194;BME280;44967;48.598;15.650;2022-12-07T01:30:04;97959.84;;;8.02;55.90
59194;BME280;44967;48.598;15.650;2022-12-07T01:32:30;97966.06;;;8.02;55.48
59194;BME280;44967;48.598;15.650;2022-12-07T01:34:56;97945.56;;;8.05;55.58
59194;BME280;44967;48.598;15.650;2022-12-07T01:37:21;97954.94;;;8.07;55.21
59194;BME280;44967;48.598;15.650;2022-12-07T01:39:51;97960.22;;;8.16;55.76
59194;BME280;44967;48.598;15.650;2022-12-07T01:42:18;97950.81;;;7.98;56.09
59194;BME280;44967;48.598;15.650;2022-12-07T01:47:49;97953.97;;;8.00;54.65
59194;BME280;44967;48.598;15.650;2022-12-07T01:50:16;97951.69;;;8.02;55.13
59194;BME280;44967;48.598;15.650;2022-12-07T01:52:45;97948.78;;;7.94;55.84
59194;BME280;44967;48.598;15.650;2022-12-07T01:55:15;97946.69;;;8.04;55.22
59194;BME280;44967;48.598;15.650;2022-12-07T01:57:43;97952.56;;;7.90;55.85
59194;BME280;44967;48.598;15.650;2022-12-07T02:00:10;97944.44;;;7.77;56.54
59194;BME280;44967;48.598;15.650;2022-12-07T02:02:53;97947.03;;;7.86;54.90
59194;BME280;44967;48.598;15.650;2022-12-07T02:05:21;97939.19;;;7.85;55.72
59194;BME280;44967;48.598;15.650;2022-12-07T02:07:48;97946.41;;;7.93;54.38
59194;BME280;44967;48.598;15.650;2022-12-07T02:10:26;97949.06;;;7.77;54.73
59194;BME280;44967;48.598;15.650;2022-12-07T02:13:04;97945.16;;;7.90;54.72
59194;BME280;44967;48.598;15.650;2022-12-07T02:15:41;97948.34;;;7.64;55.88
59194;BME280;44967;48.598;15.650;2022-12-07T02:18:18;97943.94;;;7.59;55.72
59194;BME280;44967;48.598;15.650;2022-12-07T02:21:04;97945.72;;;7.67;56.41
59194;BME280;44967;48.598;15.650;2022-12-07T02:29:17;97943.72;;;7.23;55.77
59194;BME280;44967;48.598;15.650;2022-12-07T02:31:55;97933.28;;;7.66;54.54
59194;BME280;44967;48.598;15.650;2022-12-07T02:34:31;97920.63;;;7.17;55.46
59194;BME280;44967;48.598;15.650;2022-12-07T02:37:03;97935.22;;;7.25;55.76
59194;BME280;44967;48.598;15.650;2022-12-07T02:39:48;97937.47;;;7.64;55.57
59194;BME280;44967;48.598;15.650;2022-12-07T02:42:25;97926.25;;;7.65;54.79
59194;BME280;44967;48.598;15.650;2022-12-07T02:44:52;97935.50;;;7.48;55.01
59194;BME280;44967;48.598;15.650;2022-12-07T02:47:19;97927.22;;;7.45;55.42
59194;BME280;44967;48.598;15.650;2022-12-07T02:49:47;97926.56;;;7.76;53.99
59194;BME280;44967;48.598;15.650;2022-12-07T02:52:14;97933.78;;;7.56;53.98
59194;BME280;44967;48.598;15.650;2022-12-07T02:54:40;97931.47;;;7.71;54.01
59194;BME280;44967;48.598;15.650;2022-12-07T03:00:00;97938.75;;;7.82;54.03
59194;BME280;44967;48.598;15.650;2022-12-07T03:05:54;97941.41;;;7.95;53.30
59194;BME280;44967;48.598;15.650;2022-12-07T03:11:07;97935.34;;;7.86;54.23
59194;BME280;44967;48.598;15.650;2022-12-07T03:13:48;97937.09;;;7.94;54.35
59194;BME280;44967;48.598;15.650;2022-12-07T03:16:16;97930.91;;;7.93;54.13
59194;BME280;44967;48.598;15.650;2022-12-07T03:18:58;97929.75;;;7.94;53.28
59194;BME280;44967;48.598;15.650;2022-12-07T03:21:36;97924.66;;;7.93;54.60
59194;BME280;44967;48.598;15.650;2022-12-07T03:24:06;97931.44;;;8.15;54.98
59194;BME280;44967;48.598;15.650;2022-12-07T03:26:37;97938.81;;;8.15;53.64
59194;BME280;44967;48.598;15.650;2022-12-07T03:29:19;97937.16;;;8.10;54.58
59194;BME280;44967;48.598;15.650;2022-12-07T03:31:58;97930.66;;;8.15;54.48
59194;BME280;44967;48.598;15.650;2022-12-07T03:34:44;97933.09;;;8.04;54.96
59194;BME280;44967;48.598;15.650;2022-12-07T03:37:16;97945.25;;;7.94;54.80
59194;BME280;44967;48.598;15.650;2022-12-07T03:40:19;97938.09;;;8.02;55.10
59194;BME280;44967;48.598;15.650;2022-12-07T03:42:50;97934.69;;;8.05;55.17
59194;BME280;44967;48.598;15.650;2022-12-07T03:45:16;97945.13;;;8.03;55.52
59194;BME280;44967;48.598;15.650;2022-12-07T03:47:54;97944.13;;;7.95;55.03
59194;BME280;44967;48.598;15.650;2022-12-07T03:53:13;97931.75;;;7.98;55.36
59194;BME280;44967;48.598;15.650;2022-12-07T03:55:43;97940.97;;;7.93;56.04
59194;BME280;44967;48.598;15.650;2022-12-07T03:58:12;97937.91;;;7.94;55.44
59194;BME280;44967;48.598;15.650;2022-12-07T04:00:42;97938.59;;;7.91;55.10
59194;BME280;44967;48.598;15.650;2022-12-07T04:03:08;97934.47;;;7.81;55.98
59194;BME280;44967;48.598;15.650;2022-12-07T04:05:34;97929.19;;;7.89;56.66
59194;BME280;44967;48.598;15.650;2022-12-07T04:08:00;97921.13;;;7.92;55.12
59194;BME280;44967;48.598;15.650;2022-12-07T04:10:26;97920.78;;;7.94;56.02
59194;BME280;44967;48.598;15.650;2022-12-07T04:12:51;97924.31;;;7.94;55.70
59194;BME280;44967;48.598;15.650;2022-12-07T04:15:18;97919.66;;;7.95;55.59
59194;BME280;44967;48.598;15.650;2022-12-07T04:17:43;97925.50;;;7.81;56.09
59194;BME280;44967;48.598;15.650;2022-12-07T04:20:09;97924.56;;;7.89;55.70
59194;BME280;44967;48.598;15.650;2022-12-07T04:22:35;97923.66;;;7.85;55.78
59194;BME280;44967;48.598;15.650;2022-12-07T04:25:01;97928.84;;;7.90;55.64
59194;BME280;44967;48.598;15.650;2022-12-07T04:27:26;97922.34;;;7.79;56.01
59194;BME280;44967;48.598;15.650;2022-12-07T04:29:52;97927.31;;;7.77;56.08
59194;BME280;44967;48.598;15.650;2022-12-07T04:32:18;97932.53;;;7.82;57.31
59194;BME280;44967;48.598;15.650;2022-12-07T04:34:43;97927.31;;;7.77;56.52
59194;BME280;44967;48.598;15.650;2022-12-07T04:37:09;97925.81;;;7.63;56.11
59194;BME280;44967;48.598;15.650;2022-12-07T04:39:34;97921.53;;;7.62;57.61
59194;BME280;44967;48.598;15.650;2022-12-07T04:42:01;97938.47;;;7.72;56.78
59194;BME280;44967;48.598;15.650;2022-12-07T04:44:28;97931.09;;;7.72;56.39
59194;BME280;44967;48.598;15.650;2022-12-07T04:46:54;97916.72;;;7.72;56.22
59194;BME280;44967;48.598;15.650;2022-12-07T04:49:20;97925.13;;;7.66;55.99
59194;BME280;44967;48.598;15.650;2022-12-07T04:51:47;97917.31;;;7.36;57.66
59194;BME280;44967;48.598;15.650;2022-12-07T04:54:13;97917.56;;;7.60;57.12
59194;BME280;44967;48.598;15.650;2022-12-07T04:56:40;97916.63;;;7.68;56.85
59194;BME280;44967;48.598;15.650;2022-12-07T04:59:06;97908.38;;;7.64;56.82
59194;BME280;44967;48.598;15.650;2022-12-07T05:01:31;97915.47;;;7.69;57.34
59194;BME280;44967;48.598;15.650;2022-12-07T05:03:57;97911.53;;;7.66;56.72
59194;BME280;44967;48.598;15.650;2022-12-07T05:06:23;97912.91;;;7.60;56.37
59194;BME280;44967;48.598;15.650;2022-12-07T05:08:49;97902.13;;;7.35;58.04
59194;BME280;44967;48.598;15.650;2022-12-07T05:11:15;97901.41;;;7.51;57.42
59194;BME280;44967;48.598;15.650;2022-12-07T05:13:59;97907.56;;;7.64;57.24
59194;BME280;44967;48.598;15.650;2022-12-07T05:16:25;97908.56;;;7.72;57.00
59194;BME280;44967;48.598;15.650;2022-12-07T05:18:50;97905.22;;;7.62;56.03
59194;BME280;44967;48.598;15.650;2022-12-07T05:21:16;97904.94;;;7.67;57.17
59194;BME280;44967;48.598;15.650;2022-12-07T05:23:41;97916.19;;;7.66;56.55
59194;BME280;44967;48.598;15.650;2022-12-07T05:26:08;97906.91;;;7.67;57.25
59194;BME280;44967;48.598;15.650;2022-12-07T05:28:33;97904.34;;;7.46;57.20
59194;BME280;44967;48.598;15.650;2022-12-07T05:30:59;97900.97;;;7.49;57.17
59194;BME280;44967;48.598;15.650;2022-12-07T05:33:24;97903.59;;;7.45;57.56
59194;BME280;44967;48.598;15.650;2022-12-07T05:35:50;97920.31;;;7.47;56.66
59194;BME280;44967;48.598;15.650;2022-12-07T05:38:16;97915.03;;;7.38;57.32
59194;BME280;44967;48.598;15.650;2022-12-07T05:40:41;97906.31;;;7.45;57.16
59194;BME280;44967;48.598;15.650;2022-12-07T05:43:07;97909.00;;;7.45;56.96
59194;BME280;44967;48.598;15.650;2022-12-07T05:45:32;97911.84;;;7.49;56.59
59194;BME280;44967;48.598;15.650;2022-12-07T05:47:58;97921.03;;;7.44;56.89
59194;BME280;44967;48.598;15.650;2022-12-07T05:50:24;97921.47;;;7.46;57.06
59194;BME280;44967;48.598;15.650;2022-12-07T05:52:50;97918.41;;;7.48;57.60
59194;BME280;44967;48.598;15.650;2022-12-07T05:55:16;97918.22;;;7.40;57.55
59194;BME280;44967;48.598;15.650;2022-12-07T05:57:41;97920.22;;;7.44;57.31
59194;BME280;44967;48.598;15.650;2022-12-07T06:00:27;97910.16;;;7.44;56.97
59194;BME280;44967;48.598;15.650;2022-12-07T06:02:52;97907.53;;;7.48;57.80
59194;BME280;44967;48.598;15.650;2022-12-07T06:05:18;97904.03;;;7.47;56.21
59194;BME280;44967;48.598;15.650;2022-12-07T06:07:43;97907.97;;;7.50;56.64
59194;BME280;44967;48.598;15.650;2022-12-07T06:10:09;97914.00;;;7.43;56.80
59194;BME280;44967;48.598;15.650;2022-12-07T06:12:35;97912.13;;;7.31;56.31
59194;BME280;44967;48.598;15.650;2022-12-07T06:15:03;97917.59;;;7.19;58.09
59194;BME280;44967;48.598;15.650;2022-12-07T06:17:29;97931.72;;;7.24;57.93
59194;BME280;44967;48.598;15.650;2022-12-07T06:19:55;97934.03;;;7.38;57.64
59194;BME280;44967;48.598;15.650;2022-12-07T06:22:20;97927.28;;;7.32;57.91
59194;BME280;44967;48.598;15.650;2022-12-07T06:24:46;97919.56;;;7.34;57.30
59194;BME280;44967;48.598;15.650;2022-12-07T06:27:12;97935.38;;;7.45;57.24
59194;BME280;44967;48.598;15.650;2022-12-07T06:29:37;97930.75;;;7.45;56.30
59194;BME280;44967;48.598;15.650;2022-12-07T06:32:04;97936.41;;;7.40;57.31
59194;BME280;44967;48.598;15.650;2022-12-07T06:34:30;97930.44;;;7.34;57.27
59194;BME280;44967;48.598;15.650;2022-12-07T06:36:56;97939.56;;;7.42;57.37
59194;BME280;44967;48.598;15.650;2022-12-07T06:39:25;97928.53;;;7.35;56.87
59194;BME280;44967;48.598;15.650;2022-12-07T06:41:51;97939.72;;;7.33;57.44
59194;BME280;44967;48.598;15.650;2022-12-07T06:44:17;97933.75;;;7.27;56.57
59194;BME280;44967;48.598;15.650;2022-12-07T06:46:43;97947.78;;;7.30;57.16
59194;BME280;44967;48.598;15.650;2022-12-07T06:49:09;97948.00;;;7.37;56.47
59194;BME280;44967;48.598;15.650;2022-12-07T06:51:35;97946.97;;;7.29;57.63
59194;BME280;44967;48.598;15.650;2022-12-07T06:54:04;97941.31;;;7.34;58.63
59194;BME280;44967;48.598;15.650;2022-12-07T06:56:30;97944.91;;;7.38;55.91
59194;BME280;44967;48.598;15.650;2022-12-07T06:58:56;97931.88;;;7.16;57.49
59194;BME280;44967;48.598;15.650;2022-12-07T07:01:22;97935.19;;;7.37;57.14
59194;BME280;44967;48.598;15.650;2022-12-07T07:03:48;97929.09;;;7.28;57.64
59194;BME280;44967;48.598;15.650;2022-12-07T07:06:13;97936.53;;;7.44;57.49
59194;BME280;44967;48.598;15.650;2022-12-07T07:08:39;97937.91;;;7.37;57.95
59194;BME280;44967;48.598;15.650;2022-12-07T07:11:06;97936.63;;;7.47;57.15
59194;BME280;44967;48.598;15.650;2022-12-07T07:13:33;97936.09;;;7.29;58.96
59194;BME280;44967;48.598;15.650;2022-12-07T07:15:59;97938.91;;;7.45;58.25
59194;BME280;44967;48.598;15.650;2022-12-07T07:18:25;97932.88;;;7.52;57.18
59194;BME280;44967;48.598;15.650;2022-12-07T07:20:52;97925.41;;;7.49;57.61
59194;BME280;44967;48.598;15.650;2022-12-07T07:23:18;97930.25;;;7.55;56.42
59194;BME280;44967;48.598;15.650;2022-12-07T07:25:44;97927.94;;;7.70;56.91
59194;BME280;44967;48.598;15.650;2022-12-07T07:28:10;97928.06;;;7.61;56.82
59194;BME280;44967;48.598;15.650;2022-12-07T07:30:36;97922.59;;;7.74;56.37
59194;BME280;44967;48.598;15.650;2022-12-07T07:33:03;97922.53;;;7.58;56.89
59194;BME280;44967;48.598;15.650;2022-12-07T07:35:30;97926.88;;;7.59;56.46
59194;BME280;44967;48.598;15.650;2022-12-07T07:37:57;97931.69;;;7.65;55.92
59194;BME280;44967;48.598;15.650;2022-12-07T07:40:22;97933.69;;;7.52;56.93
59194;BME280;44967;48.598;15.650;2022-12-07T07:42:52;97935.03;;;7.75;56.13
59194;BME280;44967;48.598;15.650;2022-12-07T07:45:19;97923.97;;;7.67;57.04
59194;BME280;44967;48.598;15.650;2022-12-07T07:47:45;97935.94;;;7.79;54.92
59194;BME280;44967;48.598;15.650;2022-12-07T07:50:11;97928.56;;;7.79;55.37
59194;BME280;44967;48.598;15.650;2022-12-07T07:52:37;97922.00;;;7.80;56.06
59194;BME280;44967;48.598;15.650;2022-12-07T07:55:03;97916.31;;;7.86;54.84
59194;BME280;44967;48.598;15.650;2022-12-07T07:57:29;97933.31;;;7.54;57.11
59194;BME280;44967;48.598;15.650;2022-12-07T07:59:55;97931.69;;;7.65;55.67
59194;BME280;44967;48.598;15.650;2022-12-07T08:02:20;97945.41;;;7.57;54.59
59194;BME280;44967;48.598;15.650;2022-12-07T08:04:47;97937.72;;;7.59;53.35
59194;BME280;44967;48.598;15.650;2022-12-07T08:07:14;97930.31;;;7.72;52.16
59194;BME280;44967;48.598;15.650;2022-12-07T08:09:40;97930.31;;;7.43;52.74
59194;BME280;44967;48.598;15.650;2022-12-07T08:12:06;97934.44;;;7.53;51.18
59194;BME280;44967;48.598;15.650;2022-12-07T08:14:32;97935.44;;;7.89;50.07
59194;BME280;44967;48.598;15.650;2022-12-07T08:16:58;97946.00;;;8.07;49.86
59194;BME280;44967;48.598;15.650;2022-12-07T08:19:23;97944.44;;;8.22;50.44
59194;BME280;44967;48.598;15.650;2022-12-07T08:21:49;97942.03;;;8.04;49.75
59194;BME280;44967;48.598;15.650;2022-12-07T08:24:15;97937.50;;;8.08;49.68
59194;BME280;44967;48.598;15.650;2022-12-07T08:26:42;97951.94;;;8.13;49.36
59194;BME280;44967;48.598;15.650;2022-12-07T08:29:08;97947.13;;;7.90;48.99
59194;BME280;44967;48.598;15.650;2022-12-07T08:31:33;97954.78;;;8.32;48.55
59194;BME280;44967;48.598;15.650;2022-12-07T08:33:59;97946.81;;;8.40;48.04
59194;BME280;44967;48.598;15.650;2022-12-07T08:36:25;97950.44;;;8.60;48.47
59194;BME280;44967;48.598;15.650;2022-12-07T08:38:53;97965.47;;;8.70;48.95
59194;BME280;44967;48.598;15.650;2022-12-07T08:41:19;97956.91;;;8.71;49.13
59194;BME280;44967;48.598;15.650;2022-12-07T08:43:45;97960.88;;;8.90;48.95
59194;BME280;44967;48.598;15.650;2022-12-07T08:46:21;97977.56;;;8.56;47.76
59194;BME280;44967;48.598;15.650;2022-12-07T08:48:54;97966.13;;;8.50;48.22
59194;BME280;44967;48.598;15.650;2022-12-07T08:51:22;97964.19;;;8.35;47.20
59194;BME280;44967;48.598;15.650;2022-12-07T08:53:49;97977.34;;;8.17;48.36
59194;BME280;44967;48.598;15.650;2022-12-07T08:56:15;97975.31;;;8.30;47.36
59194;BME280;44967;48.598;15.650;2022-12-07T08:58:41;97972.94;;;8.57;48.36
59194;BME280;44967;48.598;15.650;2022-12-07T09:01:07;97967.53;;;8.44;46.87
59194;BME280;44967;48.598;15.650;2022-12-07T09:03:33;97974.56;;;8.45;47.60
59194;BME280;44967;48.598;15.650;2022-12-07T09:06:00;97970.38;;;8.64;47.85
59194;BME280;44967;48.598;15.650;2022-12-07T09:08:47;97972.78;;;8.21;47.83
59194;BME280;44967;48.598;15.650;2022-12-07T09:11:15;97970.41;;;8.19;47.13
59194;BME280;44967;48.598;15.650;2022-12-07T09:13:41;97969.31;;;8.08;46.92
59194;BME280;44967;48.598;15.650;2022-12-07T09:16:06;97976.53;;;8.16;47.58
59194;BME280;44967;48.598;15.650;2022-12-07T09:18:32;97965.09;;;8.55;47.88
59194;BME280;44967;48.598;15.650;2022-12-07T09:20:58;97975.88;;;8.84;47.33
59194;BME280;44967;48.598;15.650;2022-12-07T09:23:24;97961.94;;;8.85;46.90
59194;BME280;44967;48.598;15.650;2022-12-07T09:25:50;97968.09;;;8.66;46.75
59194;BME280;44967;48.598;15.650;2022-12-07T09:28:16;97965.63;;;8.61;46.17
59194;BME280;44967;48.598;15.650;2022-12-07T09:30:46;97965.69;;;8.32;46.82
59194;BME280;44967;48.598;15.650;2022-12-07T09:33:12;97956.72;;;8.32;46.18
59194;BME280;44967;48.598;15.650;2022-12-07T09:35:38;97966.06;;;8.02;46.95
59194;BME280;44967;48.598;15.650;2022-12-07T09:38:09;97965.34;;;8.50;46.88
59194;BME280;44967;48.598;15.650;2022-12-07T09:40:34;97960.63;;;8.63;44.79
59194;BME280;44967;48.598;15.650;2022-12-07T09:43:00;97944.19;;;8.43;47.11
59194;BME280;44967;48.598;15.650;2022-12-07T09:45:34;97951.81;;;8.37;46.45
59194;BME280;44967;48.598;15.650;2022-12-07T09:48:02;97956.50;;;8.53;45.48
59194;BME280;44967;48.598;15.650;2022-12-07T09:50:29;97958.69;;;8.80;46.01
59194;BME280;44967;48.598;15.650;2022-12-07T09:53:27;97951.94;;;8.73;45.91
59194;BME280;44967;48.598;15.650;2022-12-07T09:55:53;97942.78;;;8.33;45.03
59194;BME280;44967;48.598;15.650;2022-12-07T09:58:22;97945.59;;;8.21;45.44
59194;BME280;44967;48.598;15.650;2022-12-07T10:00:51;97931.44;;;8.47;45.19
59194;BME280;44967;48.598;15.650;2022-12-07T10:03:19;97939.97;;;8.62;43.70
59194;BME280;44967;48.598;15.650;2022-12-07T10:05:48;97946.19;;;8.78;44.44
59194;BME280;44967;48.598;15.650;2022-12-07T10:08:14;97946.81;;;8.88;44.30
59194;BME280;44967;48.598;15.650;2022-12-07T10:10:44;97963.59;;;8.90;43.59
59194;BME280;44967;48.598;15.650;2022-12-07T10:13:20;97965.09;;;8.55;44.68
59194;BME280;44967;48.598;15.650;2022-12-07T10:15:53;97954.94;;;8.23;44.20
59194;BME280;44967;48.598;15.650;2022-12-07T10:20:48;97943.28;;;8.39;45.26
59194;BME280;44967;48.598;15.650;2022-12-07T10:23:18;97942.59;;;8.10;44.88
59194;BME280;44967;48.598;15.650;2022-12-07T10:25:44;97924.78;;;8.29;44.76
59194;BME280;44967;48.598;15.650;2022-12-07T10:28:17;97935.59;;;8.73;44.67
59194;BME280;44967;48.598;15.650;2022-12-07T10:31:01;97938.03;;;8.46;45.09
59194;BME280;44967;48.598;15.650;2022-12-07T10:33:36;97925.84;;;8.40;45.45
59194;BME280;44967;48.598;15.650;2022-12-07T10:36:24;97943.00;;;8.57;44.64
59194;BME280;44967;48.598;15.650;2022-12-07T10:41:17;97931.56;;;8.51;45.04
59194;BME280;44967;48.598;15.650;2022-12-07T10:43:49;97913.72;;;8.54;44.70
59194;BME280;44967;48.598;15.650;2022-12-07T11:06:41;97910.84;;;8.62;43.37
59194;BME280;44967;48.598;15.650;2022-12-07T11:09:47;97932.69;;;8.34;42.45
59194;BME280;44967;48.598;15.650;2022-12-07T11:12:33;97916.03;;;8.68;44.18
59194;BME280;44967;48.598;15.650;2022-12-07T11:15:17;97923.19;;;8.12;44.58
59194;BME280;44967;48.598;15.650;2022-12-07T11:21:09;97918.78;;;8.71;44.15
59194;BME280;44967;48.598;15.650;2022-12-07T11:24:01;97908.19;;;8.50;43.14
59194;BME280;44967;48.598;15.650;2022-12-07T11:32:02;97898.63;;;8.72;44.51
59194;BME280;44967;48.598;15.650;2022-12-07T11:37:09;97888.97;;;8.59;43.20
59194;BME280;44967;48.598;15.650;2022-12-07T11:39:51;97897.25;;;8.82;43.53
59194;BME280;44967;48.598;15.650;2022-12-07T11:42:37;97895.31;;;8.99;43.62
59194;BME280;44967;48.598;15.650;2022-12-07T11:45:34;97886.78;;;8.48;43.04
59194;BME280;44967;48.598;15.650;2022-12-07T11:48:16;97879.50;;;8.53;43.00
59194;BME280;44967;48.598;15.650;2022-12-07T11:53:29;97887.31;;;8.54;44.41
59194;BME280;44967;48.598;15.650;2022-12-07T12:03:42;97877.41;;;9.17;42.66
59194;BME280;44967;48.598;15.650;2022-12-07T12:06:09;97871.44;;;9.51;42.11
59194;BME280;44967;48.598;15.650;2022-12-07T12:08:42;97875.88;;;9.40;41.51
59194;BME280;44967;48.598;15.650;2022-12-07T12:11:44;97870.16;;;9.25;42.06
59194;BME280;44967;48.598;15.650;2022-12-07T12:17:13;97861.75;;;9.34;42.11
59194;BME280;44967;48.598;15.650;2022-12-07T12:19:56;97836.16;;;8.99;41.54
59194;BME280;44967;48.598;15.650;2022-12-07T12:22:38;97843.75;;;8.90;42.34
59194;BME280;44967;48.598;15.650;2022-12-07T12:25:11;97840.03;;;9.38;42.28
59194;BME280;44967;48.598;15.650;2022-12-07T12:27:45;97845.94;;;9.20;42.12
59194;BME280;44967;48.598;15.650;2022-12-07T12:33:18;97851.47;;;9.67;42.79
59194;BME280;44967;48.598;15.650;2022-12-07T12:46:54;97853.44;;;9.46;41.25
59194;BME280;44967;48.598;15.650;2022-12-07T12:51:57;97847.78;;;9.79;41.57
59194;BME280;44967;48.598;15.650;2022-12-07T12:54:32;97838.84;;;10.01;42.48
59194;BME280;44967;48.598;15.650;2022-12-07T12:59:35;97847.78;;;10.02;41.59
59194;BME280;44967;48.598;15.650;2022-12-07T13:02:29;97863.63;;;9.93;42.42
59194;BME280;44967;48.598;15.650;2022-12-07T13:13:04;97864.91;;;9.56;43.44
59194;BME280;44967;48.598;15.650;2022-12-07T13:20:55;97873.44;;;9.74;43.29
59194;BME280;44967;48.598;15.650;2022-12-07T13:28:52;97866.34;;;9.10;43.64
59194;BME280;44967;48.598;15.650;2022-12-07T13:33:52;97879.09;;;9.45;43.82
59194;BME280;44967;48.598;15.650;2022-12-07T13:36:22;97862.88;;;9.53;42.71
59194;BME280;44967;48.598;15.650;2022-12-07T13:38:50;97862.25;;;9.59;43.17
59194;BME280;44967;48.598;15.650;2022-12-07T13:41:19;97869.63;;;9.79;42.86
59194;BME280;44967;48.598;15.650;2022-12-07T13:43:55;97866.66;;;9.25;42.42
59194;BME280;44967;48.598;15.650;2022-12-07T13:47:13;97874.72;;;9.60;42.62
59194;BME280;44967;48.598;15.650;2022-12-07T13:49:21;97875.69;;;9.72;42.30
59194;BME280;44967;48.598;15.650;2022-12-07T13:51:48;97869.41;;;9.68;42.56
59194;BME280;44967;48.598;15.650;2022-12-07T13:54:15;97857.25;;;9.42;41.95
59194;BME280;44967;48.598;15.650;2022-12-07T13:56:41;97857.25;;;9.42;43.12
59194;BME280;44967;48.598;15.650;2022-12-07T13:59:21;97869.28;;;9.60;43.32
59194;BME280;44967;48.598;15.650;2022-12-07T14:01:48;97870.72;;;9.54;42.43
59194;BME280;44967;48.598;15.650;2022-12-07T14:04:31;97888.16;;;9.50;43.00
59194;BME280;44967;48.598;15.650;2022-12-07T14:06:58;97872.84;;;9.65;42.58
59194;BME280;44967;48.598;15.650;2022-12-07T14:09:25;97858.84;;;9.03;42.91
59194;BME280;44967;48.598;15.650;2022-12-07T14:11:56;97864.53;;;9.18;43.37
59194;BME280;44967;48.598;15.650;2022-12-07T14:14:31;97884.34;;;9.54;42.97
59194;BME280;44967;48.598;15.650;2022-12-07T14:17:24;97876.63;;;9.37;42.91
59194;BME280;44967;48.598;15.650;2022-12-07T14:19:58;97875.56;;;8.86;43.75
59194;BME280;44967;48.598;15.650;2022-12-07T14:22:26;97880.25;;;9.05;43.48
59194;BME280;44967;48.598;15.650;2022-12-07T14:25:15;97881.50;;;9.27;43.63
59194;BME280;44967;48.598;15.650;2022-12-07T14:27:53;97879.28;;;8.77;43.47
59194;BME280;44967;48.598;15.650;2022-12-07T14:30:22;97880.69;;;8.71;44.19
59194;BME280;44967;48.598;15.650;2022-12-07T14:32:53;97867.84;;;8.88;43.94
59194;BME280;44967;48.598;15.650;2022-12-07T14:35:19;97863.13;;;9.04;43.28
59194;BME280;44967;48.598;15.650;2022-12-07T14:37:47;97873.56;;;9.02;44.33
59194;BME280;44967;48.598;15.650;2022-12-07T14:40:29;97876.38;;;9.06;43.57
59194;BME280;44967;48.598;15.650;2022-12-07T14:43:24;97881.78;;;9.22;43.95
59194;BME280;44967;48.598;15.650;2022-12-07T14:45:50;97885.50;;;9.14;43.39
59194;BME280;44967;48.598;15.650;2022-12-07T14:48:16;97878.84;;;8.75;44.74
59194;BME280;44967;48.598;15.650;2022-12-07T14:50:49;97880.97;;;8.66;44.22
59194;BME280;44967;48.598;15.650;2022-12-07T14:53:18;97875.03;;;8.96;44.36
59194;BME280;44967;48.598;15.650;2022-12-07T14:55:48;97856.38;;;8.98;44.33
59194;BME280;44967;48.598;15.650;2022-12-07T14:58:15;97858.19;;;9.10;44.29
59194;BME280;44967;48.598;15.650;2022-12-07T15:00:43;97877.31;;;9.33;43.67
59194;BME280;44967;48.598;15.650;2022-12-07T15:03:09;97869.88;;;9.11;44.38
59194;BME280;44967;48.598;15.650;2022-12-07T15:05:35;97888.94;;;9.30;44.69